createdAt,value
2023-04-16T00:00:56.887Z,11.76
2023-04-16T00:06:17.502Z,11.76
2023-04-16T00:11:37.980Z,11.73
2023-04-16T00:16:58.563Z,11.71
2023-04-16T00:22:19.155Z,11.70
2023-04-16T00:27:40.254Z,11.68
2023-04-16T00:33:00.950Z,11.63
2023-04-16T00:38:21.674Z,11.65
2023-04-16T00:43:42.506Z,11.67
2023-04-16T00:49:04.109Z,11.63
2023-04-16T00:54:25.567Z,11.64
2023-04-16T00:59:46.531Z,11.61
2023-04-16T01:05:07.215Z,11.59
2023-04-16T01:10:28.570Z,11.57
2023-04-16T01:15:49.211Z,11.59
2023-04-16T01:21:09.940Z,11.62
2023-04-16T01:26:31.285Z,11.61
2023-04-16T01:31:52.100Z,11.62
2023-04-16T01:37:18.958Z,11.62
2023-04-16T01:42:40.540Z,11.60
2023-04-16T01:48:03.002Z,11.61
2023-04-16T01:53:23.679Z,11.60
2023-04-16T01:58:46.022Z,11.59
2023-04-16T02:04:08.581Z,11.59
2023-04-16T02:09:29.034Z,11.44
2023-04-16T02:14:49.822Z,11.33
2023-04-16T02:20:15.929Z,11.32
2023-04-16T02:25:46.256Z,11.21
2023-04-16T02:31:07.870Z,11.07
2023-04-16T02:36:35.396Z,11.07
2023-04-16T02:41:56.115Z,11.04
2023-04-16T02:47:17.387Z,11.04
2023-04-16T02:52:37.989Z,11.07
2023-04-16T02:57:58.414Z,11.09
2023-04-16T03:03:19.583Z,11.07
2023-04-16T03:08:40.716Z,11.08
2023-04-16T03:14:01.149Z,11.09
2023-04-16T03:19:21.716Z,11.11
2023-04-16T03:24:42.292Z,11.08
2023-04-16T03:30:03.750Z,11.02
2023-04-16T03:35:27.440Z,10.98
2023-04-16T03:40:48.125Z,10.89
2023-04-16T03:46:09.399Z,10.84
2023-04-16T03:51:30.101Z,10.86
2023-04-16T03:56:52.035Z,10.85
2023-04-16T04:02:12.417Z,10.82
2023-04-16T04:07:33.366Z,10.84
2023-04-16T04:12:54.314Z,10.84
2023-04-16T04:18:15.214Z,10.87
2023-04-16T04:23:37.319Z,10.87
2023-04-16T04:28:59.423Z,10.87
2023-04-16T04:34:20.644Z,10.87
2023-04-16T04:39:41.604Z,10.86
2023-04-16T04:45:02.307Z,10.88
2023-04-16T04:50:26.417Z,10.93
2023-04-16T04:55:49.218Z,10.97
2023-04-16T05:01:11.810Z,11.02
2023-04-16T05:06:32.903Z,11.06
2023-04-16T05:11:53.953Z,11.02
2023-04-16T05:17:14.815Z,11.00
2023-04-16T05:22:35.844Z,11.03
2023-04-16T05:27:56.784Z,11.11
2023-04-16T05:33:17.469Z,11.22
2023-04-16T05:38:38.109Z,11.34
2023-04-16T05:43:58.486Z,11.38
2023-04-16T05:49:19.042Z,11.46
2023-04-16T05:54:39.520Z,11.55
2023-04-16T06:00:00.338Z,11.59
2023-04-16T06:05:21.227Z,11.57
2023-04-16T06:10:42.065Z,11.61
2023-04-16T06:16:02.615Z,11.60
2023-04-16T06:21:23.373Z,11.57
2023-04-16T06:26:44.557Z,11.60
2023-04-16T06:32:05.589Z,11.60
2023-04-16T06:37:26.154Z,11.72
2023-04-16T06:42:46.654Z,12.04
2023-04-16T06:48:07.502Z,12.12
2023-04-16T06:53:29.346Z,12.14
2023-04-16T06:58:50.377Z,12.22
2023-04-16T07:04:12.130Z,12.27
2023-04-16T07:09:33.297Z,12.30
2023-04-16T07:14:53.592Z,12.14
2023-04-16T07:20:17.448Z,12.35
2023-04-16T07:25:38.208Z,12.03
2023-04-16T07:30:59.710Z,12.01
2023-04-16T07:36:20.981Z,12.31
2023-04-16T07:41:41.747Z,12.40
2023-04-16T07:47:05.283Z,12.40
2023-04-16T07:52:26.845Z,12.26
2023-04-16T07:57:47.625Z,12.32
2023-04-16T08:03:10.599Z,12.21
2023-04-16T08:08:31.711Z,12.03
2023-04-16T08:13:52.220Z,12.28
2023-04-16T08:19:13.266Z,12.04
2023-04-16T08:24:36.706Z,12.14
2023-04-16T08:29:57.953Z,12.26
2023-04-16T08:35:18.876Z,12.29
2023-04-16T08:40:42.455Z,12.36
2023-04-16T08:46:05.781Z,12.40
2023-04-16T08:51:30.349Z,12.45
2023-04-16T08:56:51.906Z,12.52
2023-04-16T09:02:16.331Z,12.82
2023-04-16T09:07:38.531Z,12.90
2023-04-16T09:12:59.167Z,12.88
2023-04-16T09:18:21.185Z,13.04
2023-04-16T09:23:42.022Z,13.25
2023-04-16T09:29:02.703Z,13.47
2023-04-16T09:34:23.266Z,13.83
2023-04-16T09:39:44.927Z,14.14
2023-04-16T09:45:06.400Z,14.49
2023-04-16T09:50:27.328Z,14.57
2023-04-16T09:55:47.823Z,14.54
2023-04-16T10:01:10.812Z,14.43
2023-04-16T10:06:31.481Z,14.24
2023-04-16T10:11:52.338Z,14.15
2023-04-16T10:17:12.970Z,14.42
2023-04-16T10:22:34.743Z,15.21
2023-04-16T10:27:56.628Z,16.44
2023-04-16T10:33:19.414Z,17.56
2023-04-16T10:38:52.414Z,18.62
2023-04-16T10:44:13.342Z,19.36
2023-04-16T10:49:35.544Z,19.75
2023-04-16T10:54:59.672Z,20.17
2023-04-16T11:08:17.880Z,22.92
2023-04-16T11:13:38.461Z,23.92
2023-04-16T11:18:59.214Z,26.51
2023-04-16T11:24:19.571Z,28.25
2023-04-16T11:29:41.430Z,30.66
2023-04-16T11:35:04.814Z,31.17
2023-04-16T11:40:29.247Z,29.74
2023-04-16T11:46:27.054Z,29.24
2023-04-16T11:51:48.352Z,31.07
2023-04-16T11:57:09.430Z,33.20
2023-04-16T12:02:41.024Z,38.64
2023-04-16T12:08:03.525Z,41.49
2023-04-16T12:13:24.031Z,43.60
2023-04-16T12:19:00.412Z,43.11
2023-04-16T12:24:21.092Z,44.60
2023-04-16T12:29:41.550Z,48.93
2023-04-16T12:35:02.352Z,50.31
2023-04-16T12:40:23.304Z,51.15
2023-04-16T12:45:44.413Z,52.51
2023-04-16T12:51:04.809Z,53.59
2023-04-16T12:56:25.487Z,53.45
2023-04-16T13:01:46.048Z,52.82
2023-04-16T13:07:06.663Z,50.54
2023-04-16T13:12:27.586Z,48.73
2023-04-16T13:17:47.908Z,45.18
2023-04-16T13:23:08.758Z,40.61
2023-04-16T13:28:29.247Z,40.63
2023-04-16T13:33:50.653Z,42.77
2023-04-16T13:39:11.497Z,40.58
2023-04-16T13:44:32.338Z,38.35
2023-04-16T13:49:56.620Z,39.20
2023-04-16T13:55:19.151Z,42.10
2023-04-16T14:00:42.372Z,45.69
2023-04-16T14:06:03.445Z,45.51
2023-04-16T14:11:24.092Z,46.94
2023-04-16T14:16:44.698Z,46.04
2023-04-16T14:22:06.164Z,44.09
2023-04-16T14:27:28.129Z,44.63
2023-04-16T14:32:48.909Z,42.38
2023-04-16T14:38:11.320Z,38.12
2023-04-16T14:43:31.908Z,35.12
2023-04-16T14:48:52.532Z,31.21
2023-04-16T14:54:13.106Z,30.06
2023-04-16T14:59:33.632Z,31.82
2023-04-16T15:04:54.517Z,31.28
2023-04-16T15:10:15.483Z,29.03
2023-04-16T15:15:35.865Z,29.02
2023-04-16T15:20:56.603Z,31.00
2023-04-16T15:26:17.385Z,31.32
2023-04-16T15:31:38.330Z,27.29
2023-04-16T15:36:59.144Z,24.65
2023-04-16T15:42:19.639Z,22.70
2023-04-16T15:47:41.858Z,21.88
2023-04-16T15:53:03.320Z,21.45
2023-04-16T15:58:24.182Z,20.46
2023-04-16T16:03:44.984Z,19.41
2023-04-16T16:09:06.281Z,18.50
2023-04-16T16:14:27.285Z,17.96
2023-04-16T16:19:48.010Z,17.09
2023-04-16T16:25:10.159Z,16.47
2023-04-16T16:30:30.645Z,15.90
2023-04-16T16:35:51.378Z,15.46
2023-04-16T16:41:12.119Z,15.19
2023-04-16T16:46:32.968Z,14.91
2023-04-16T16:51:53.423Z,14.70
2023-04-16T16:57:15.330Z,14.65
2023-04-16T17:02:36.037Z,14.59
2023-04-16T17:07:57.113Z,14.33
2023-04-16T17:13:19.917Z,14.25
2023-04-16T17:18:40.888Z,13.97
2023-04-16T17:24:02.167Z,13.72
2023-04-16T17:29:26.034Z,13.60
2023-04-16T17:34:46.859Z,13.44
2023-04-16T17:40:07.989Z,13.37
2023-04-16T17:45:28.424Z,13.15
2023-04-16T17:58:46.306Z,12.77
2023-04-16T18:04:07.326Z,12.71
2023-04-16T18:09:27.900Z,12.64
2023-04-16T18:14:48.612Z,12.55
2023-04-16T18:20:11.627Z,12.42
2023-04-16T18:25:35.052Z,12.36
2023-04-16T18:30:58.731Z,12.25
2023-04-16T18:36:20.049Z,12.16
2023-04-16T18:41:41.631Z,12.11
2023-04-16T18:47:02.366Z,12.08
2023-04-16T18:52:23.696Z,12.07
2023-04-16T18:57:45.377Z,12.07
2023-04-16T19:03:14.398Z,12.02
2023-04-16T19:08:35.328Z,12.05
2023-04-16T19:14:06.008Z,12.00
2023-04-16T19:19:31.568Z,11.93
2023-04-16T19:24:54.717Z,11.86
2023-04-16T19:30:23.616Z,11.82
2023-04-16T19:35:48.397Z,11.80
2023-04-16T19:41:13.784Z,11.80
2023-04-16T19:46:50.990Z,11.75
2023-04-16T19:52:18.295Z,11.71
2023-04-16T19:57:39.518Z,11.66
2023-04-16T20:03:02.771Z,11.64
2023-04-16T20:08:23.381Z,11.60
2023-04-16T20:13:47.912Z,11.57
2023-04-16T20:19:09.125Z,11.60
2023-04-16T20:24:32.876Z,11.51
2023-04-16T20:29:53.665Z,11.54
2023-04-16T20:35:14.776Z,11.60
2023-04-16T20:40:38.629Z,11.56
2023-04-16T20:45:59.176Z,11.54
2023-04-16T20:51:19.738Z,11.55
2023-04-16T20:56:40.770Z,11.58
2023-04-16T21:02:01.827Z,11.63
2023-04-16T21:07:22.599Z,11.65
2023-04-16T21:12:43.154Z,11.69
2023-04-16T21:25:35.355Z,11.74
2023-04-16T21:30:56.192Z,11.80
2023-04-16T21:36:17.081Z,11.83
2023-04-16T21:41:37.896Z,11.88
2023-04-16T21:46:58.217Z,11.92
2023-04-16T21:52:18.718Z,11.95
2023-04-16T21:57:39.369Z,11.98
2023-04-16T22:03:02.099Z,12.01
2023-04-16T22:08:24.875Z,12.01
2023-04-16T22:13:47.767Z,12.01
2023-04-16T22:19:08.579Z,11.99
2023-04-16T22:24:28.985Z,11.95
2023-04-16T22:29:49.876Z,11.80
2023-04-16T22:35:10.495Z,11.78
2023-04-16T22:40:31.873Z,11.78
2023-04-16T22:46:06.469Z,11.76
2023-04-16T22:51:27.002Z,11.79
2023-04-16T22:56:48.548Z,11.72
2023-04-16T23:02:08.969Z,11.67
2023-04-16T23:07:29.879Z,11.66
2023-04-16T23:12:50.379Z,11.67
2023-04-16T23:18:11.014Z,11.66
2023-04-16T23:23:31.401Z,11.67
2023-04-16T23:28:52.200Z,11.72
2023-04-16T23:34:12.784Z,11.74
2023-04-16T23:39:33.254Z,11.81
2023-04-16T23:44:53.463Z,11.90
2023-04-16T23:50:14.059Z,11.93
2023-04-16T23:55:34.377Z,11.91
